sensor_id;sensor_type;location;lat;lon;timestamp;P1;durP1;ratioP1;P2;durP2;ratioP2
49131;SDS011;35149;51.196;6.204;2023-03-01T00:01:47;9.77;;;7.38;;
49131;SDS011;35149;51.196;6.204;2023-03-01T00:04:15;7.97;;;6.88;;
49131;SDS011;35149;51.196;6.204;2023-03-01T00:06:42;8.40;;;6.95;;
49131;SDS011;35149;51.196;6.204;2023-03-01T00:09:12;9.35;;;6.82;;
49131;SDS011;35149;51.196;6.204;2023-03-01T00:11:40;9.70;;;7.22;;
49131;SDS011;35149;51.196;6.204;2023-03-01T00:14:11;9.48;;;7.30;;
49131;SDS011;35149;51.196;6.204;2023-03-01T00:16:40;12.05;;;7.50;;
49131;SDS011;35149;51.196;6.204;2023-03-01T00:19:14;8.93;;;6.93;;
49131;SDS011;35149;51.196;6.204;2023-03-01T00:21:46;7.57;;;6.45;;
49131;SDS011;35149;51.196;6.204;2023-03-01T00:24:14;7.90;;;6.70;;
49131;SDS011;35149;51.196;6.204;2023-03-01T00:26:41;10.35;;;6.60;;
49131;SDS011;35149;51.196;6.204;2023-03-01T00:29:10;9.60;;;6.85;;
49131;SDS011;35149;51.196;6.204;2023-03-01T00:31:43;15.70;;;7.95;;
49131;SDS011;35149;51.196;6.204;2023-03-01T00:34:12;7.97;;;6.65;;
49131;SDS011;35149;51.196;6.204;2023-03-01T00:36:39;8.85;;;7.20;;
49131;SDS011;35149;51.196;6.204;2023-03-01T00:39:12;8.55;;;6.93;;
49131;SDS011;35149;51.196;6.204;2023-03-01T00:41:42;9.98;;;7.03;;
49131;SDS011;35149;51.196;6.204;2023-03-01T00:44:09;8.45;;;7.30;;
49131;SDS011;35149;51.196;6.204;2023-03-01T00:46:40;8.20;;;7.25;;
49131;SDS011;35149;51.196;6.204;2023-03-01T00:49:09;7.03;;;6.28;;
49131;SDS011;35149;51.196;6.204;2023-03-01T00:51:37;8.73;;;7.65;;
49131;SDS011;35149;51.196;6.204;2023-03-01T00:54:10;7.15;;;6.45;;
49131;SDS011;35149;51.196;6.204;2023-03-01T00:56:38;10.40;;;7.75;;
49131;SDS011;35149;51.196;6.204;2023-03-01T00:59:10;10.73;;;7.57;;
49131;SDS011;35149;51.196;6.204;2023-03-01T01:01:38;13.70;;;7.88;;
49131;SDS011;35149;51.196;6.204;2023-03-01T01:04:08;8.73;;;7.28;;
49131;SDS011;35149;51.196;6.204;2023-03-01T01:06:38;9.85;;;7.18;;
49131;SDS011;35149;51.196;6.204;2023-03-01T01:09:12;12.05;;;7.28;;
49131;SDS011;35149;51.196;6.204;2023-03-01T01:11:48;9.82;;;7.00;;
49131;SDS011;35149;51.196;6.204;2023-03-01T01:14:25;9.38;;;6.78;;
49131;SDS011;35149;51.196;6.204;2023-03-01T01:16:53;9.35;;;7.13;;
49131;SDS011;35149;51.196;6.204;2023-03-01T01:19:19;8.90;;;7.50;;
49131;SDS011;35149;51.196;6.204;2023-03-01T01:21:47;8.77;;;7.30;;
49131;SDS011;35149;51.196;6.204;2023-03-01T01:24:14;8.93;;;7.60;;
49131;SDS011;35149;51.196;6.204;2023-03-01T01:26:41;8.88;;;7.30;;
49131;SDS011;35149;51.196;6.204;2023-03-01T01:29:12;8.15;;;7.15;;
49131;SDS011;35149;51.196;6.204;2023-03-01T01:31:39;8.15;;;7.32;;
49131;SDS011;35149;51.196;6.204;2023-03-01T01:34:13;10.80;;;8.00;;
49131;SDS011;35149;51.196;6.204;2023-03-01T01:36:52;8.20;;;6.68;;
49131;SDS011;35149;51.196;6.204;2023-03-01T01:39:20;8.07;;;6.60;;
49131;SDS011;35149;51.196;6.204;2023-03-01T01:41:47;9.30;;;7.55;;
49131;SDS011;35149;51.196;6.204;2023-03-01T01:49:27;9.38;;;8.38;;
49131;SDS011;35149;51.196;6.204;2023-03-01T01:52:00;8.48;;;7.07;;
49131;SDS011;35149;51.196;6.204;2023-03-01T01:54:46;9.45;;;7.25;;
49131;SDS011;35149;51.196;6.204;2023-03-01T01:57:40;8.93;;;7.10;;
49131;SDS011;35149;51.196;6.204;2023-03-01T02:00:12;10.88;;;8.30;;
49131;SDS011;35149;51.196;6.204;2023-03-01T02:02:51;9.68;;;8.23;;
49131;SDS011;35149;51.196;6.204;2023-03-01T02:05:29;8.02;;;6.50;;
49131;SDS011;35149;51.196;6.204;2023-03-01T02:08:01;8.38;;;7.18;;
49131;SDS011;35149;51.196;6.204;2023-03-01T02:10:27;9.30;;;8.20;;
49131;SDS011;35149;51.196;6.204;2023-03-01T02:13:01;8.75;;;7.90;;
49131;SDS011;35149;51.196;6.204;2023-03-01T02:15:32;9.02;;;8.13;;
49131;SDS011;35149;51.196;6.204;2023-03-01T02:18:01;10.95;;;8.23;;
49131;SDS011;35149;51.196;6.204;2023-03-01T02:23:00;10.57;;;8.27;;
49131;SDS011;35149;51.196;6.204;2023-03-01T02:25:32;8.57;;;7.13;;
49131;SDS011;35149;51.196;6.204;2023-03-01T02:30:47;10.30;;;7.90;;
49131;SDS011;35149;51.196;6.204;2023-03-01T02:33:36;9.95;;;8.05;;
49131;SDS011;35149;51.196;6.204;2023-03-01T02:36:17;8.55;;;7.05;;
49131;SDS011;35149;51.196;6.204;2023-03-01T02:38:47;11.20;;;7.80;;
49131;SDS011;35149;51.196;6.204;2023-03-01T02:41:18;8.57;;;7.32;;
49131;SDS011;35149;51.196;6.204;2023-03-01T02:46:21;7.75;;;6.30;;
49131;SDS011;35149;51.196;6.204;2023-03-01T02:48:55;10.63;;;7.88;;
49131;SDS011;35149;51.196;6.204;2023-03-01T02:56:52;10.30;;;7.93;;
49131;SDS011;35149;51.196;6.204;2023-03-01T02:59:22;12.48;;;9.20;;
49131;SDS011;35149;51.196;6.204;2023-03-01T03:01:51;12.87;;;9.73;;
49131;SDS011;35149;51.196;6.204;2023-03-01T03:04:23;9.07;;;8.02;;
49131;SDS011;35149;51.196;6.204;2023-03-01T03:06:52;12.68;;;7.65;;
49131;SDS011;35149;51.196;6.204;2023-03-01T03:09:21;10.85;;;8.23;;
49131;SDS011;35149;51.196;6.204;2023-03-01T03:11:50;12.82;;;8.27;;
49131;SDS011;35149;51.196;6.204;2023-03-01T03:14:25;10.45;;;7.30;;
49131;SDS011;35149;51.196;6.204;2023-03-01T03:16:59;10.00;;;8.85;;
49131;SDS011;35149;51.196;6.204;2023-03-01T03:19:33;12.77;;;8.20;;
49131;SDS011;35149;51.196;6.204;2023-03-01T03:22:00;10.23;;;8.88;;
49131;SDS011;35149;51.196;6.204;2023-03-01T03:24:29;11.18;;;7.30;;
49131;SDS011;35149;51.196;6.204;2023-03-01T03:27:07;9.90;;;8.27;;
49131;SDS011;35149;51.196;6.204;2023-03-01T03:29:36;10.82;;;7.60;;
49131;SDS011;35149;51.196;6.204;2023-03-01T03:32:05;10.30;;;8.57;;
49131;SDS011;35149;51.196;6.204;2023-03-01T03:34:31;10.60;;;8.55;;
49131;SDS011;35149;51.196;6.204;2023-03-01T03:36:58;11.25;;;7.35;;
49131;SDS011;35149;51.196;6.204;2023-03-01T03:39:26;12.27;;;8.02;;
49131;SDS011;35149;51.196;6.204;2023-03-01T03:42:00;11.27;;;8.07;;
49131;SDS011;35149;51.196;6.204;2023-03-01T03:44:30;12.73;;;7.95;;
49131;SDS011;35149;51.196;6.204;2023-03-01T03:47:03;11.38;;;7.88;;
49131;SDS011;35149;51.196;6.204;2023-03-01T03:49:33;9.27;;;8.35;;
49131;SDS011;35149;51.196;6.204;2023-03-01T03:52:01;11.00;;;8.30;;
49131;SDS011;35149;51.196;6.204;2023-03-01T03:54:27;14.68;;;8.93;;
49131;SDS011;35149;51.196;6.204;2023-03-01T03:56:58;11.73;;;8.77;;
49131;SDS011;35149;51.196;6.204;2023-03-01T03:59:28;12.63;;;9.02;;
49131;SDS011;35149;51.196;6.204;2023-03-01T04:01:55;13.70;;;9.32;;
49131;SDS011;35149;51.196;6.204;2023-03-01T04:04:24;11.73;;;8.38;;
49131;SDS011;35149;51.196;6.204;2023-03-01T04:06:51;10.18;;;8.25;;
49131;SDS011;35149;51.196;6.204;2023-03-01T04:09:22;12.65;;;11.45;;
49131;SDS011;35149;51.196;6.204;2023-03-01T04:11:49;10.30;;;7.97;;
49131;SDS011;35149;51.196;6.204;2023-03-01T04:14:15;10.32;;;8.70;;
49131;SDS011;35149;51.196;6.204;2023-03-01T04:16:47;10.77;;;9.00;;
49131;SDS011;35149;51.196;6.204;2023-03-01T04:19:14;12.38;;;9.18;;
49131;SDS011;35149;51.196;6.204;2023-03-01T04:21:42;12.15;;;9.23;;
49131;SDS011;35149;51.196;6.204;2023-03-01T04:24:08;11.55;;;8.68;;
49131;SDS011;35149;51.196;6.204;2023-03-01T04:26:39;11.60;;;8.77;;
49131;SDS011;35149;51.196;6.204;2023-03-01T04:29:05;12.85;;;8.20;;
49131;SDS011;35149;51.196;6.204;2023-03-01T04:31:32;11.70;;;9.40;;
49131;SDS011;35149;51.196;6.204;2023-03-01T04:34:00;12.02;;;9.00;;
49131;SDS011;35149;51.196;6.204;2023-03-01T04:36:27;13.23;;;8.02;;
49131;SDS011;35149;51.196;6.204;2023-03-01T04:38:56;10.63;;;8.18;;
49131;SDS011;35149;51.196;6.204;2023-03-01T04:43:54;9.38;;;7.65;;
49131;SDS011;35149;51.196;6.204;2023-03-01T04:46:24;11.77;;;7.85;;
49131;SDS011;35149;51.196;6.204;2023-03-01T04:48:54;9.30;;;7.57;;
49131;SDS011;35149;51.196;6.204;2023-03-01T04:51:22;9.60;;;8.00;;
49131;SDS011;35149;51.196;6.204;2023-03-01T04:53:49;12.73;;;8.55;;
49131;SDS011;35149;51.196;6.204;2023-03-01T04:56:16;9.32;;;7.95;;
49131;SDS011;35149;51.196;6.204;2023-03-01T04:58:53;11.18;;;7.95;;
49131;SDS011;35149;51.196;6.204;2023-03-01T05:01:20;11.63;;;8.50;;
49131;SDS011;35149;51.196;6.204;2023-03-01T05:03:48;12.60;;;8.68;;
49131;SDS011;35149;51.196;6.204;2023-03-01T05:06:18;10.63;;;9.00;;
49131;SDS011;35149;51.196;6.204;2023-03-01T05:08:45;11.88;;;9.20;;
49131;SDS011;35149;51.196;6.204;2023-03-01T05:11:15;11.88;;;8.48;;
49131;SDS011;35149;51.196;6.204;2023-03-01T05:13:42;11.50;;;9.20;;
49131;SDS011;35149;51.196;6.204;2023-03-01T05:16:09;13.23;;;9.30;;
49131;SDS011;35149;51.196;6.204;2023-03-01T05:18:37;13.23;;;8.80;;
49131;SDS011;35149;51.196;6.204;2023-03-01T05:21:06;9.98;;;8.50;;
49131;SDS011;35149;51.196;6.204;2023-03-01T05:23:34;11.13;;;8.35;;
49131;SDS011;35149;51.196;6.204;2023-03-01T05:26:02;10.95;;;8.45;;
49131;SDS011;35149;51.196;6.204;2023-03-01T05:28:39;12.45;;;8.40;;
49131;SDS011;35149;51.196;6.204;2023-03-01T05:31:05;19.85;;;9.20;;
49131;SDS011;35149;51.196;6.204;2023-03-01T05:33:39;14.80;;;9.95;;
49131;SDS011;35149;51.196;6.204;2023-03-01T05:36:07;13.02;;;9.95;;
49131;SDS011;35149;51.196;6.204;2023-03-01T05:38:35;12.60;;;8.50;;
49131;SDS011;35149;51.196;6.204;2023-03-01T05:41:04;12.85;;;9.45;;
49131;SDS011;35149;51.196;6.204;2023-03-01T05:43:31;11.27;;;9.32;;
49131;SDS011;35149;51.196;6.204;2023-03-01T05:45:59;12.25;;;9.23;;
49131;SDS011;35149;51.196;6.204;2023-03-01T05:48:26;13.48;;;8.70;;
49131;SDS011;35149;51.196;6.204;2023-03-01T05:50:53;15.43;;;8.57;;
49131;SDS011;35149;51.196;6.204;2023-03-01T05:53:20;14.07;;;9.43;;
49131;SDS011;35149;51.196;6.204;2023-03-01T05:55:49;12.10;;;9.25;;
49131;SDS011;35149;51.196;6.204;2023-03-01T05:58:17;11.82;;;8.63;;
49131;SDS011;35149;51.196;6.204;2023-03-01T06:00:46;13.23;;;9.68;;
49131;SDS011;35149;51.196;6.204;2023-03-01T06:03:16;11.25;;;8.00;;
49131;SDS011;35149;51.196;6.204;2023-03-01T06:05:43;10.48;;;8.82;;
49131;SDS011;35149;51.196;6.204;2023-03-01T06:08:11;9.48;;;7.50;;
49131;SDS011;35149;51.196;6.204;2023-03-01T06:10:38;11.23;;;9.20;;
49131;SDS011;35149;51.196;6.204;2023-03-01T06:13:05;12.07;;;8.85;;
49131;SDS011;35149;51.196;6.204;2023-03-01T06:15:32;11.85;;;9.75;;
49131;SDS011;35149;51.196;6.204;2023-03-01T06:17:59;12.07;;;9.40;;
49131;SDS011;35149;51.196;6.204;2023-03-01T06:20:26;14.15;;;9.77;;
49131;SDS011;35149;51.196;6.204;2023-03-01T06:22:54;15.52;;;8.75;;
49131;SDS011;35149;51.196;6.204;2023-03-01T06:25:21;10.55;;;8.07;;
49131;SDS011;35149;51.196;6.204;2023-03-01T06:27:49;10.70;;;8.02;;
49131;SDS011;35149;51.196;6.204;2023-03-01T06:30:18;14.23;;;8.73;;
49131;SDS011;35149;51.196;6.204;2023-03-01T06:32:46;11.98;;;8.82;;
49131;SDS011;35149;51.196;6.204;2023-03-01T06:35:13;13.63;;;8.93;;
49131;SDS011;35149;51.196;6.204;2023-03-01T06:37:43;10.35;;;8.35;;
49131;SDS011;35149;51.196;6.204;2023-03-01T06:40:10;10.23;;;8.48;;
49131;SDS011;35149;51.196;6.204;2023-03-01T06:42:39;13.15;;;9.05;;
49131;SDS011;35149;51.196;6.204;2023-03-01T06:45:07;13.82;;;9.18;;
49131;SDS011;35149;51.196;6.204;2023-03-01T06:47:34;10.85;;;8.68;;
49131;SDS011;35149;51.196;6.204;2023-03-01T06:50:01;11.35;;;8.50;;
49131;SDS011;35149;51.196;6.204;2023-03-01T06:52:29;11.93;;;8.88;;
49131;SDS011;35149;51.196;6.204;2023-03-01T06:54:55;10.63;;;8.55;;
49131;SDS011;35149;51.196;6.204;2023-03-01T06:57:22;10.82;;;8.48;;
49131;SDS011;35149;51.196;6.204;2023-03-01T06:59:53;13.07;;;9.15;;
49131;SDS011;35149;51.196;6.204;2023-03-01T07:02:20;11.63;;;9.18;;
49131;SDS011;35149;51.196;6.204;2023-03-01T07:04:47;11.88;;;8.63;;
49131;SDS011;35149;51.196;6.204;2023-03-01T07:07:16;16.38;;;9.80;;
49131;SDS011;35149;51.196;6.204;2023-03-01T07:09:44;10.90;;;8.85;;
49131;SDS011;35149;51.196;6.204;2023-03-01T07:12:14;11.88;;;9.10;;
49131;SDS011;35149;51.196;6.204;2023-03-01T07:14:40;11.70;;;8.85;;
49131;SDS011;35149;51.196;6.204;2023-03-01T07:17:09;17.13;;;10.35;;
49131;SDS011;35149;51.196;6.204;2023-03-01T07:19:36;13.93;;;10.48;;
49131;SDS011;35149;51.196;6.204;2023-03-01T07:22:03;16.30;;;10.07;;
49131;SDS011;35149;51.196;6.204;2023-03-01T07:24:30;16.77;;;9.52;;
49131;SDS011;35149;51.196;6.204;2023-03-01T07:26:57;16.60;;;10.75;;
49131;SDS011;35149;51.196;6.204;2023-03-01T07:29:24;14.30;;;9.48;;
49131;SDS011;35149;51.196;6.204;2023-03-01T07:31:51;13.82;;;10.10;;
49131;SDS011;35149;51.196;6.204;2023-03-01T07:34:17;14.18;;;10.25;;
49131;SDS011;35149;51.196;6.204;2023-03-01T07:36:44;15.07;;;10.30;;
49131;SDS011;35149;51.196;6.204;2023-03-01T07:39:11;14.60;;;9.55;;
49131;SDS011;35149;51.196;6.204;2023-03-01T07:41:37;16.48;;;10.68;;
49131;SDS011;35149;51.196;6.204;2023-03-01T07:44:04;15.32;;;9.95;;
49131;SDS011;35149;51.196;6.204;2023-03-01T07:46:31;14.30;;;10.05;;
49131;SDS011;35149;51.196;6.204;2023-03-01T07:48:58;15.32;;;10.60;;
49131;SDS011;35149;51.196;6.204;2023-03-01T07:51:25;14.57;;;11.15;;
49131;SDS011;35149;51.196;6.204;2023-03-01T07:53:52;15.18;;;10.70;;
49131;SDS011;35149;51.196;6.204;2023-03-01T07:56:18;16.65;;;10.38;;
49131;SDS011;35149;51.196;6.204;2023-03-01T07:58:47;15.05;;;10.63;;
49131;SDS011;35149;51.196;6.204;2023-03-01T08:01:17;15.15;;;10.07;;
49131;SDS011;35149;51.196;6.204;2023-03-01T08:03:45;23.20;;;10.70;;
49131;SDS011;35149;51.196;6.204;2023-03-01T08:06:13;17.27;;;11.73;;
49131;SDS011;35149;51.196;6.204;2023-03-01T08:08:42;19.25;;;11.45;;
49131;SDS011;35149;51.196;6.204;2023-03-01T08:11:10;15.90;;;10.55;;
49131;SDS011;35149;51.196;6.204;2023-03-01T08:13:38;14.07;;;10.60;;
49131;SDS011;35149;51.196;6.204;2023-03-01T08:16:06;17.75;;;11.68;;
49131;SDS011;35149;51.196;6.204;2023-03-01T08:18:35;15.15;;;10.00;;
49131;SDS011;35149;51.196;6.204;2023-03-01T08:21:03;16.17;;;10.95;;
49131;SDS011;35149;51.196;6.204;2023-03-01T08:23:34;17.63;;;11.43;;
49131;SDS011;35149;51.196;6.204;2023-03-01T08:26:08;19.70;;;12.07;;
49131;SDS011;35149;51.196;6.204;2023-03-01T08:28:40;17.13;;;11.30;;
49131;SDS011;35149;51.196;6.204;2023-03-01T08:31:18;16.50;;;11.65;;
49131;SDS011;35149;51.196;6.204;2023-03-01T08:33:47;13.65;;;10.55;;
49131;SDS011;35149;51.196;6.204;2023-03-01T08:36:17;18.20;;;11.57;;
49131;SDS011;35149;51.196;6.204;2023-03-01T08:38:44;16.42;;;11.32;;
49131;SDS011;35149;51.196;6.204;2023-03-01T08:41:11;16.08;;;10.85;;
49131;SDS011;35149;51.196;6.204;2023-03-01T08:43:38;16.55;;;11.45;;
49131;SDS011;35149;51.196;6.204;2023-03-01T08:46:05;22.92;;;12.55;;
49131;SDS011;35149;51.196;6.204;2023-03-01T08:48:31;17.80;;;11.52;;
49131;SDS011;35149;51.196;6.204;2023-03-01T08:51:07;16.30;;;10.85;;
49131;SDS011;35149;51.196;6.204;2023-03-01T08:53:39;16.27;;;11.00;;
49131;SDS011;35149;51.196;6.204;2023-03-01T08:56:06;21.75;;;11.48;;
49131;SDS011;35149;51.196;6.204;2023-03-01T08:58:33;20.80;;;11.25;;
49131;SDS011;35149;51.196;6.204;2023-03-01T09:01:00;16.63;;;11.43;;
49131;SDS011;35149;51.196;6.204;2023-03-01T09:03:27;19.08;;;11.27;;
49131;SDS011;35149;51.196;6.204;2023-03-01T09:05:59;19.08;;;11.85;;
49131;SDS011;35149;51.196;6.204;2023-03-01T09:08:27;17.27;;;11.65;;
49131;SDS011;35149;51.196;6.204;2023-03-01T09:10:54;15.95;;;11.48;;
49131;SDS011;35149;51.196;6.204;2023-03-01T09:13:21;15.85;;;11.80;;
49131;SDS011;35149;51.196;6.204;2023-03-01T09:15:50;15.90;;;10.80;;
49131;SDS011;35149;51.196;6.204;2023-03-01T09:18:17;18.10;;;12.57;;
49131;SDS011;35149;51.196;6.204;2023-03-01T09:20:44;20.25;;;12.07;;
49131;SDS011;35149;51.196;6.204;2023-03-01T09:23:11;18.77;;;12.23;;
49131;SDS011;35149;51.196;6.204;2023-03-01T09:25:38;14.98;;;10.93;;
49131;SDS011;35149;51.196;6.204;2023-03-01T09:28:05;16.48;;;10.68;;
49131;SDS011;35149;51.196;6.204;2023-03-01T09:30:32;16.25;;;11.00;;
49131;SDS011;35149;51.196;6.204;2023-03-01T09:32:59;14.80;;;10.55;;
49131;SDS011;35149;51.196;6.204;2023-03-01T09:35:26;18.00;;;12.35;;
49131;SDS011;35149;51.196;6.204;2023-03-01T09:37:54;16.00;;;12.25;;
49131;SDS011;35149;51.196;6.204;2023-03-01T09:40:21;15.68;;;11.18;;
49131;SDS011;35149;51.196;6.204;2023-03-01T09:43:07;16.90;;;11.82;;
49131;SDS011;35149;51.196;6.204;2023-03-01T09:45:58;16.55;;;10.23;;
49131;SDS011;35149;51.196;6.204;2023-03-01T09:48:31;18.17;;;11.30;;
49131;SDS011;35149;51.196;6.204;2023-03-01T09:51:06;14.23;;;10.55;;
49131;SDS011;35149;51.196;6.204;2023-03-01T09:53:40;13.48;;;10.30;;
49131;SDS011;35149;51.196;6.204;2023-03-01T09:56:12;14.48;;;10.98;;
49131;SDS011;35149;51.196;6.204;2023-03-01T10:05:05;15.35;;;11.48;;
49131;SDS011;35149;51.196;6.204;2023-03-01T10:08:38;14.95;;;10.00;;
49131;SDS011;35149;51.196;6.204;2023-03-01T10:10:55;13.15;;;9.88;;
49131;SDS011;35149;51.196;6.204;2023-03-01T10:13:25;15.30;;;10.10;;
49131;SDS011;35149;51.196;6.204;2023-03-01T10:16:01;15.05;;;10.63;;
49131;SDS011;35149;51.196;6.204;2023-03-01T10:18:38;13.10;;;9.95;;
49131;SDS011;35149;51.196;6.204;2023-03-01T10:21:13;18.67;;;11.00;;
49131;SDS011;35149;51.196;6.204;2023-03-01T10:23:42;12.98;;;9.30;;
49131;SDS011;35149;51.196;6.204;2023-03-01T10:26:20;13.57;;;10.80;;
49131;SDS011;35149;51.196;6.204;2023-03-01T10:29:05;14.52;;;10.95;;
49131;SDS011;35149;51.196;6.204;2023-03-01T10:31:50;12.60;;;9.82;;
49131;SDS011;35149;51.196;6.204;2023-03-01T10:34:26;14.30;;;11.07;;
49131;SDS011;35149;51.196;6.204;2023-03-01T10:37:15;16.65;;;10.82;;
49131;SDS011;35149;51.196;6.204;2023-03-01T10:40:22;12.65;;;9.60;;
49131;SDS011;35149;51.196;6.204;2023-03-01T10:42:48;14.45;;;9.70;;
49131;SDS011;35149;51.196;6.204;2023-03-01T10:50:34;14.73;;;10.25;;
49131;SDS011;35149;51.196;6.204;2023-03-01T10:53:16;13.65;;;10.63;;
49131;SDS011;35149;51.196;6.204;2023-03-01T10:58:57;13.02;;;9.65;;
49131;SDS011;35149;51.196;6.204;2023-03-01T11:01:34;13.93;;;10.98;;
49131;SDS011;35149;51.196;6.204;2023-03-01T11:06:34;15.65;;;10.10;;
49131;SDS011;35149;51.196;6.204;2023-03-01T11:09:14;15.40;;;9.50;;
49131;SDS011;35149;51.196;6.204;2023-03-01T11:11:45;13.25;;;9.48;;
49131;SDS011;35149;51.196;6.204;2023-03-01T11:14:19;14.10;;;10.65;;
49131;SDS011;35149;51.196;6.204;2023-03-01T11:17:11;13.95;;;10.18;;
49131;SDS011;35149;51.196;6.204;2023-03-01T11:19:48;10.93;;;9.05;;
49131;SDS011;35149;51.196;6.204;2023-03-01T11:22:36;12.98;;;10.07;;
49131;SDS011;35149;51.196;6.204;2023-03-01T11:25:03;14.25;;;10.18;;
49131;SDS011;35149;51.196;6.204;2023-03-01T11:27:40;14.35;;;11.23;;
49131;SDS011;35149;51.196;6.204;2023-03-01T11:30:16;15.65;;;10.82;;
49131;SDS011;35149;51.196;6.204;2023-03-01T11:33:05;15.68;;;10.32;;
49131;SDS011;35149;51.196;6.204;2023-03-01T11:35:46;16.90;;;11.30;;
49131;SDS011;35149;51.196;6.204;2023-03-01T11:38:22;16.98;;;10.50;;
49131;SDS011;35149;51.196;6.204;2023-03-01T11:40:57;14.18;;;10.63;;
49131;SDS011;35149;51.196;6.204;2023-03-01T11:49:47;12.32;;;10.50;;
49131;SDS011;35149;51.196;6.204;2023-03-01T12:14:41;13.90;;;10.70;;
49131;SDS011;35149;51.196;6.204;2023-03-01T12:28:12;11.48;;;9.60;;
49131;SDS011;35149;51.196;6.204;2023-03-01T12:31:46;11.35;;;10.00;;
49131;SDS011;35149;51.196;6.204;2023-03-01T12:34:04;13.90;;;9.77;;
49131;SDS011;35149;51.196;6.204;2023-03-01T12:39:51;11.80;;;8.88;;
49131;SDS011;35149;51.196;6.204;2023-03-01T12:43:10;13.70;;;8.48;;
49131;SDS011;35149;51.196;6.204;2023-03-01T12:51:15;10.93;;;8.10;;
49131;SDS011;35149;51.196;6.204;2023-03-01T12:53:47;12.13;;;8.95;;
49131;SDS011;35149;51.196;6.204;2023-03-01T12:56:16;10.27;;;8.63;;
49131;SDS011;35149;51.196;6.204;2023-03-01T13:07:23;12.98;;;9.68;;
49131;SDS011;35149;51.196;6.204;2023-03-01T13:15:37;11.95;;;8.57;;
49131;SDS011;35149;51.196;6.204;2023-03-01T13:23:11;12.80;;;8.52;;
49131;SDS011;35149;51.196;6.204;2023-03-01T13:31:02;7.75;;;6.70;;
49131;SDS011;35149;51.196;6.204;2023-03-01T13:33:37;9.15;;;6.50;;
49131;SDS011;35149;51.196;6.204;2023-03-01T13:36:07;8.35;;;6.43;;
49131;SDS011;35149;51.196;6.204;2023-03-01T13:38:45;8.20;;;6.97;;
49131;SDS011;35149;51.196;6.204;2023-03-01T13:41:16;9.05;;;6.65;;
49131;SDS011;35149;51.196;6.204;2023-03-01T13:46:53;10.80;;;7.07;;
49131;SDS011;35149;51.196;6.204;2023-03-01T13:49:26;9.63;;;7.07;;
49131;SDS011;35149;51.196;6.204;2023-03-01T13:52:30;9.18;;;6.80;;
49131;SDS011;35149;51.196;6.204;2023-03-01T13:55:30;11.73;;;7.60;;
49131;SDS011;35149;51.196;6.204;2023-03-01T13:58:05;7.78;;;6.85;;
49131;SDS011;35149;51.196;6.204;2023-03-01T14:00:43;8.85;;;7.82;;
49131;SDS011;35149;51.196;6.204;2023-03-01T14:03:17;10.35;;;7.32;;
49131;SDS011;35149;51.196;6.204;2023-03-01T14:05:57;9.98;;;7.53;;
49131;SDS011;35149;51.196;6.204;2023-03-01T14:08:38;10.40;;;7.10;;
49131;SDS011;35149;51.196;6.204;2023-03-01T14:11:26;8.23;;;6.68;;
49131;SDS011;35149;51.196;6.204;2023-03-01T14:19:42;8.52;;;6.18;;
49131;SDS011;35149;51.196;6.204;2023-03-01T14:25:00;7.40;;;6.05;;
49131;SDS011;35149;51.196;6.204;2023-03-01T14:27:38;7.85;;;6.43;;
49131;SDS011;35149;51.196;6.204;2023-03-01T14:30:19;6.45;;;5.45;;
49131;SDS011;35149;51.196;6.204;2023-03-01T14:32:56;7.93;;;6.93;;
49131;SDS011;35149;51.196;6.204;2023-03-01T14:35:32;6.80;;;6.10;;
49131;SDS011;35149;51.196;6.204;2023-03-01T14:38:13;7.40;;;5.78;;
49131;SDS011;35149;51.196;6.204;2023-03-01T14:40:48;6.63;;;5.80;;
49131;SDS011;35149;51.196;6.204;2023-03-01T14:43:25;6.50;;;5.88;;
49131;SDS011;35149;51.196;6.204;2023-03-01T14:45:58;6.90;;;6.18;;
49131;SDS011;35149;51.196;6.204;2023-03-01T14:48:24;6.30;;;5.70;;
49131;SDS011;35149;51.196;6.204;2023-03-01T14:50:56;7.05;;;5.97;;
49131;SDS011;35149;51.196;6.204;2023-03-01T14:53:27;7.85;;;5.57;;
49131;SDS011;35149;51.196;6.204;2023-03-01T14:56:02;6.53;;;5.85;;
49131;SDS011;35149;51.196;6.204;2023-03-01T14:58:31;7.03;;;5.88;;
49131;SDS011;35149;51.196;6.204;2023-03-01T15:01:02;9.82;;;5.70;;
49131;SDS011;35149;51.196;6.204;2023-03-01T15:03:43;7.43;;;5.75;;
49131;SDS011;35149;51.196;6.204;2023-03-01T15:06:20;8.52;;;6.63;;
49131;SDS011;35149;51.196;6.204;2023-03-01T15:08:51;6.50;;;5.70;;
49131;SDS011;35149;51.196;6.204;2023-03-01T15:13:58;6.75;;;5.82;;
49131;SDS011;35149;51.196;6.204;2023-03-01T15:16:30;9.18;;;5.80;;
49131;SDS011;35149;51.196;6.204;2023-03-01T15:19:06;7.60;;;5.60;;
49131;SDS011;35149;51.196;6.204;2023-03-01T15:21:38;9.50;;;6.13;;
49131;SDS011;35149;51.196;6.204;2023-03-01T15:24:18;7.30;;;5.15;;
49131;SDS011;35149;51.196;6.204;2023-03-01T15:26:58;7.25;;;5.47;;
49131;SDS011;35149;51.196;6.204;2023-03-01T15:29:33;6.05;;;5.20;;
49131;SDS011;35149;51.196;6.204;2023-03-01T15:34:57;5.50;;;4.93;;
49131;SDS011;35149;51.196;6.204;2023-03-01T15:43:01;8.90;;;5.32;;
49131;SDS011;35149;51.196;6.204;2023-03-01T15:45:30;6.18;;;5.40;;
49131;SDS011;35149;51.196;6.204;2023-03-01T15:48:03;5.90;;;5.35;;
49131;SDS011;35149;51.196;6.204;2023-03-01T15:50:40;6.05;;;5.45;;
49131;SDS011;35149;51.196;6.204;2023-03-01T15:53:10;7.53;;;6.15;;
49131;SDS011;35149;51.196;6.204;2023-03-01T15:55:38;5.85;;;5.10;;
49131;SDS011;35149;51.196;6.204;2023-03-01T15:58:15;8.13;;;5.55;;
49131;SDS011;35149;51.196;6.204;2023-03-01T16:00:44;7.57;;;5.60;;
49131;SDS011;35149;51.196;6.204;2023-03-01T16:05:53;5.75;;;4.70;;
49131;SDS011;35149;51.196;6.204;2023-03-01T16:08:22;6.75;;;5.03;;
49131;SDS011;35149;51.196;6.204;2023-03-01T16:10:49;7.65;;;5.88;;
49131;SDS011;35149;51.196;6.204;2023-03-01T16:13:17;6.47;;;5.88;;
49131;SDS011;35149;51.196;6.204;2023-03-01T16:15:45;7.68;;;6.30;;
49131;SDS011;35149;51.196;6.204;2023-03-01T16:18:11;7.30;;;6.20;;
49131;SDS011;35149;51.196;6.204;2023-03-01T16:20:41;6.53;;;5.88;;
49131;SDS011;35149;51.196;6.204;2023-03-01T16:23:08;7.35;;;6.32;;
49131;SDS011;35149;51.196;6.204;2023-03-01T16:25:36;6.55;;;5.88;;
49131;SDS011;35149;51.196;6.204;2023-03-01T16:28:04;7.97;;;6.25;;
49131;SDS011;35149;51.196;6.204;2023-03-01T16:30:35;6.97;;;5.97;;
49131;SDS011;35149;51.196;6.204;2023-03-01T16:33:03;7.82;;;6.30;;
49131;SDS011;35149;51.196;6.204;2023-03-01T16:35:50;8.20;;;6.78;;
49131;SDS011;35149;51.196;6.204;2023-03-01T16:38:16;8.32;;;6.70;;
49131;SDS011;35149;51.196;6.204;2023-03-01T16:40:46;7.85;;;6.75;;
49131;SDS011;35149;51.196;6.204;2023-03-01T16:43:14;9.75;;;6.85;;
49131;SDS011;35149;51.196;6.204;2023-03-01T16:45:41;8.25;;;6.57;;
49131;SDS011;35149;51.196;6.204;2023-03-01T16:48:10;12.45;;;7.47;;
49131;SDS011;35149;51.196;6.204;2023-03-01T16:50:37;11.48;;;8.25;;
49131;SDS011;35149;51.196;6.204;2023-03-01T16:53:04;9.63;;;6.90;;
49131;SDS011;35149;51.196;6.204;2023-03-01T16:55:34;10.85;;;7.18;;
49131;SDS011;35149;51.196;6.204;2023-03-01T16:58:01;8.45;;;7.00;;
49131;SDS011;35149;51.196;6.204;2023-03-01T17:00:28;10.93;;;8.35;;
49131;SDS011;35149;51.196;6.204;2023-03-01T17:02:55;9.32;;;7.32;;
49131;SDS011;35149;51.196;6.204;2023-03-01T17:05:22;9.10;;;7.20;;
49131;SDS011;35149;51.196;6.204;2023-03-01T17:07:49;9.52;;;7.72;;
49131;SDS011;35149;51.196;6.204;2023-03-01T17:10:17;10.98;;;8.13;;
49131;SDS011;35149;51.196;6.204;2023-03-01T17:12:43;9.43;;;8.18;;
49131;SDS011;35149;51.196;6.204;2023-03-01T17:15:15;9.15;;;7.93;;
49131;SDS011;35149;51.196;6.204;2023-03-01T17:17:42;10.18;;;8.13;;